BAW32CB EGKK-KJFK
Flight info
| Callsign | BAW32CB |
|---|---|
| Flight time | N/A |
| Altitude | 36000 |
| Route | NOVMA L620 SAM N19 ADKIK DCT MOPAT DCT MALOT/M082F360 NATE TUDEP/N0471F360 N518B BRADD DCT LARIE DCT JAWZZ DCT SEY PARCH4 |
| Aircraft | A388/J-SADE2E3FGHIJ3J4J5M1RWXY/LB1D1 |
Departure
| Time | 2026-04-14 16:48 |
|---|---|
| Airport | London Gatwick Airport (EGKK) |
Arrival
| Time | N/A |
|---|---|
| Airport | John F. Kennedy International Airport (KJFK) |
| Time | Latitude | Longitude | Altitude | Speed | Heading |
|---|---|---|---|---|---|
| 2026-04-14 15:48 | 51.15923 | -0.17965 | 215 ft | 0 kts | 77° |
| 2026-04-14 16:18 | 51.15918 | -0.18002 | 219 ft | 4 kts | 77° |
| 2026-04-14 16:18 | 51.15912 | -0.18044 | 209 ft | 4 kts | 77° |
| 2026-04-14 16:18 | 51.15911 | -0.18084 | 212 ft | 4 kts | 115° |
| 2026-04-14 16:19 | 51.15925 | -0.18107 | 209 ft | 2 kts | 167° |
| 2026-04-14 16:19 | 51.15948 | -0.18115 | 214 ft | 4 kts | 167° |
| 2026-04-14 16:19 | 51.15962 | -0.18120 | 210 ft | 0 kts | 167° |
| 2026-04-14 16:25 | 51.15960 | -0.18119 | 218 ft | 2 kts | 167° |
| 2026-04-14 16:25 | 51.15935 | -0.18110 | 212 ft | 5 kts | 167° |
| 2026-04-14 16:25 | 51.15889 | -0.18094 | 209 ft | 7 kts | 168° |
| 2026-04-14 16:25 | 51.15869 | -0.18087 | 212 ft | 6 kts | 167° |
| 2026-04-14 16:26 | 51.15809 | -0.18067 | 218 ft | 10 kts | 168° |
| 2026-04-14 16:26 | 51.15774 | -0.18055 | 209 ft | 0 kts | 168° |
| 2026-04-14 16:34 | 51.15764 | -0.18051 | 209 ft | 4 kts | 168° |
| 2026-04-14 16:34 | 51.15725 | -0.18039 | 216 ft | 7 kts | 168° |
| 2026-04-14 16:34 | 51.15698 | -0.18011 | 217 ft | 3 kts | 114° |
| 2026-04-14 16:34 | 51.15698 | -0.17959 | 218 ft | 8 kts | 76° |
| 2026-04-14 16:35 | 51.15715 | -0.17834 | 218 ft | 15 kts | 78° |
| 2026-04-14 16:35 | 51.15738 | -0.17671 | 211 ft | 12 kts | 77° |
| 2026-04-14 16:35 | 51.15753 | -0.17563 | 212 ft | 6 kts | 77° |
| 2026-04-14 16:35 | 51.15753 | -0.17536 | 211 ft | 3 kts | 124° |
| 2026-04-14 16:36 | 51.15698 | -0.17488 | 214 ft | 15 kts | 166° |
| 2026-04-14 16:36 | 51.15595 | -0.17457 | 209 ft | 15 kts | 168° |
| 2026-04-14 16:36 | 51.15507 | -0.17426 | 218 ft | 11 kts | 167° |
| 2026-04-14 16:36 | 51.15450 | -0.17404 | 214 ft | 0 kts | 167° |
| 2026-04-14 16:37 | 51.15434 | -0.17399 | 209 ft | 6 kts | 167° |
| 2026-04-14 16:38 | 51.15372 | -0.17376 | 219 ft | 10 kts | 168° |
| 2026-04-14 16:38 | 51.15294 | -0.17350 | 216 ft | 12 kts | 168° |
| 2026-04-14 16:38 | 51.15227 | -0.17294 | 219 ft | 11 kts | 147° |
| 2026-04-14 16:38 | 51.15186 | -0.17238 | 219 ft | 8 kts | 111° |
| 2026-04-14 16:39 | 51.15187 | -0.17144 | 209 ft | 10 kts | 77° |
| 2026-04-14 16:39 | 51.15201 | -0.17037 | 209 ft | 0 kts | 78° |
| 2026-04-14 16:41 | 51.15202 | -0.17028 | 215 ft | 5 kts | 78° |
| 2026-04-14 16:41 | 51.15212 | -0.16958 | 212 ft | 2 kts | 77° |
| 2026-04-14 16:41 | 51.15213 | -0.16954 | 209 ft | 0 kts | 77° |
| 2026-04-14 16:45 | 51.15213 | -0.16951 | 216 ft | 2 kts | 77° |
| 2026-04-14 16:45 | 51.15220 | -0.16896 | 218 ft | 8 kts | 78° |
| 2026-04-14 16:45 | 51.15224 | -0.16865 | 209 ft | 0 kts | 81° |
| 2026-04-14 16:46 | 51.15225 | -0.16863 | 209 ft | 2 kts | 84° |
| 2026-04-14 16:46 | 51.15223 | -0.16833 | 213 ft | 1 kts | 128° |
| 2026-04-14 16:46 | 51.15177 | -0.16800 | 212 ft | 12 kts | 162° |
| 2026-04-14 16:47 | 51.15138 | -0.16801 | 208 ft | 6 kts | 225° |
| 2026-04-14 16:47 | 51.15113 | -0.16867 | 207 ft | 8 kts | 256° |
| 2026-04-14 16:47 | 51.15110 | -0.16886 | 207 ft | 0 kts | 258° |
| 2026-04-14 16:47 | 51.15088 | -0.17049 | 213 ft | 48 kts | 258° |
| 2026-04-14 16:48 | 51.14950 | -0.18041 | 212 ft | 130 kts | 257° |
| 2026-04-14 16:48 | 51.14719 | -0.19737 | 220 ft | 176 kts | 257° |
| 2026-04-14 16:48 | 51.14458 | -0.21644 | 750 ft | 176 kts | 255° |
| 2026-04-14 16:48 | 51.14168 | -0.23634 | 1063 ft | 192 kts | 255° |
| 2026-04-14 16:49 | 51.13873 | -0.25645 | 1233 ft | 212 kts | 255° |
| 2026-04-14 16:49 | 51.13534 | -0.28036 | 1871 ft | 222 kts | 255° |
| 2026-04-14 16:49 | 51.13193 | -0.30521 | 2616 ft | 240 kts | 256° |
| 2026-04-14 16:49 | 51.12887 | -0.32799 | 3299 ft | 251 kts | 253° |
| 2026-04-14 16:50 | 51.12503 | -0.35620 | 3816 ft | 273 kts | 253° |
| 2026-04-14 16:50 | 51.12075 | -0.38741 | 3978 ft | 304 kts | 254° |
| 2026-04-14 16:50 | 51.11584 | -0.42177 | 3995 ft | 330 kts | 251° |
| 2026-04-14 16:50 | 51.10724 | -0.45505 | 4000 ft | 315 kts | 240° |
| 2026-04-14 16:51 | 51.09773 | -0.48520 | 3991 ft | 293 kts | 240° |
| 2026-04-14 16:51 | 51.08890 | -0.51326 | 4036 ft | 273 kts | 239° |
| 2026-04-14 16:51 | 51.08054 | -0.54026 | 4310 ft | 275 kts | 240° |
| 2026-04-14 16:51 | 51.07235 | -0.56664 | 5388 ft | 261 kts | 240° |
| 2026-04-14 16:52 | 51.06441 | -0.59206 | 6442 ft | 256 kts | 240° |
| 2026-04-14 16:52 | 51.05653 | -0.61765 | 7197 ft | 260 kts | 244° |
| 2026-04-14 16:52 | 51.05092 | -0.64531 | 7998 ft | 265 kts | 254° |
| 2026-04-14 16:52 | 51.04719 | -0.67431 | 8753 ft | 269 kts | 254° |
| 2026-04-14 16:53 | 51.04331 | -0.70357 | 9494 ft | 272 kts | 255° |
| 2026-04-14 16:53 | 51.03933 | -0.73317 | 10217 ft | 275 kts | 255° |
| 2026-04-14 16:53 | 51.03523 | -0.76361 | 10625 ft | 291 kts | 256° |
| 2026-04-14 16:53 | 51.03081 | -0.79617 | 10814 ft | 311 kts | 256° |
| 2026-04-14 16:54 | 51.02612 | -0.83081 | 10988 ft | 329 kts | 256° |
| 2026-04-14 16:54 | 51.02118 | -0.86735 | 11165 ft | 347 kts | 257° |
| 2026-04-14 16:54 | 51.01598 | -0.90577 | 11380 ft | 363 kts | 257° |
| 2026-04-14 16:54 | 51.01062 | -0.94520 | 11954 ft | 367 kts | 257° |
| 2026-04-14 16:55 | 51.00518 | -0.98505 | 12542 ft | 370 kts | 257° |
| 2026-04-14 16:55 | 50.99974 | -1.02468 | 13110 ft | 373 kts | 257° |
| 2026-04-14 16:55 | 50.99418 | -1.06513 | 13657 ft | 377 kts | 258° |
| 2026-04-14 16:55 | 50.98858 | -1.10587 | 14222 ft | 380 kts | 258° |
| 2026-04-14 16:56 | 50.98292 | -1.14697 | 14732 ft | 383 kts | 258° |
| 2026-04-14 16:56 | 50.97716 | -1.18841 | 15028 ft | 386 kts | 258° |
| 2026-04-14 16:56 | 50.97135 | -1.23009 | 15101 ft | 386 kts | 258° |
| 2026-04-14 16:56 | 50.96553 | -1.27172 | 15102 ft | 384 kts | 258° |
| 2026-04-14 16:57 | 50.95972 | -1.31309 | 15098 ft | 384 kts | 258° |
| 2026-04-14 16:57 | 50.95391 | -1.35456 | 15099 ft | 384 kts | 258° |
| 2026-04-14 16:57 | 50.94843 | -1.39604 | 15101 ft | 384 kts | 259° |
| 2026-04-14 16:57 | 50.94328 | -1.43710 | 15101 ft | 384 kts | 259° |
| 2026-04-14 16:58 | 50.93810 | -1.47870 | 15101 ft | 384 kts | 259° |
| 2026-04-14 16:58 | 50.93288 | -1.52029 | 15100 ft | 384 kts | 259° |
| 2026-04-14 16:58 | 50.92758 | -1.56205 | 15258 ft | 387 kts | 259° |
| 2026-04-14 16:58 | 50.92222 | -1.60402 | 15836 ft | 386 kts | 259° |
| 2026-04-14 16:59 | 50.91694 | -1.64486 | 16956 ft | 369 kts | 259° |
| 2026-04-14 16:59 | 50.91181 | -1.68433 | 17800 ft | 364 kts | 260° |
| 2026-04-14 16:59 | 50.90672 | -1.72355 | 18430 ft | 363 kts | 261° |
| 2026-04-14 16:59 | 50.90163 | -1.76282 | 18938 ft | 365 kts | 260° |
| 2026-04-14 17:00 | 50.89647 | -1.80245 | 19383 ft | 368 kts | 260° |
| 2026-04-14 17:00 | 50.89134 | -1.84175 | 19891 ft | 369 kts | 260° |
| 2026-04-14 17:00 | 50.88611 | -1.88168 | 20340 ft | 371 kts | 260° |
| 2026-04-14 17:00 | 50.88084 | -1.92187 | 20793 ft | 373 kts | 260° |
| 2026-04-14 17:01 | 50.87553 | -1.96215 | 21242 ft | 375 kts | 260° |
| 2026-04-14 17:01 | 50.87016 | -2.00274 | 21667 ft | 377 kts | 260° |
| 2026-04-14 17:01 | 50.86475 | -2.04342 | 22152 ft | 378 kts | 260° |
| 2026-04-14 17:01 | 50.85932 | -2.08434 | 22614 ft | 380 kts | 260° |
| 2026-04-14 17:02 | 50.85384 | -2.12537 | 23036 ft | 382 kts | 260° |
| 2026-04-14 17:02 | 50.84833 | -2.16655 | 23427 ft | 384 kts | 260° |
| 2026-04-14 17:02 | 50.84277 | -2.20795 | 23815 ft | 386 kts | 260° |
| 2026-04-14 17:02 | 50.83715 | -2.24964 | 24193 ft | 388 kts | 260° |
| 2026-04-14 17:03 | 50.83149 | -2.29152 | 24583 ft | 390 kts | 260° |
| 2026-04-14 17:03 | 50.82581 | -2.33350 | 24960 ft | 392 kts | 260° |
| 2026-04-14 17:03 | 50.82005 | -2.37591 | 25334 ft | 394 kts | 260° |
| 2026-04-14 17:03 | 50.81428 | -2.41834 | 25719 ft | 396 kts | 260° |
| 2026-04-14 17:04 | 50.80844 | -2.46107 | 26123 ft | 398 kts | 260° |
| 2026-04-14 17:04 | 50.80331 | -2.50415 | 26493 ft | 399 kts | 265° |
| 2026-04-14 17:04 | 50.80215 | -2.54796 | 26915 ft | 399 kts | 274° |
| 2026-04-14 17:04 | 50.80521 | -2.59108 | 27350 ft | 400 kts | 282° |
| 2026-04-14 17:05 | 50.81211 | -2.63375 | 27766 ft | 401 kts | 287° |
| 2026-04-14 17:05 | 50.81975 | -2.67631 | 28170 ft | 404 kts | 286° |
| 2026-04-14 17:05 | 50.82727 | -2.71924 | 28587 ft | 406 kts | 286° |
| 2026-04-14 17:05 | 50.83475 | -2.76234 | 29037 ft | 407 kts | 286° |
| 2026-04-14 17:06 | 50.84225 | -2.80562 | 29456 ft | 409 kts | 286° |
| 2026-04-14 17:06 | 50.84984 | -2.84924 | 29868 ft | 411 kts | 286° |
| 2026-04-14 17:06 | 50.85743 | -2.89293 | 30285 ft | 413 kts | 286° |
| 2026-04-14 17:06 | 50.86504 | -2.93702 | 30685 ft | 415 kts | 286° |
| 2026-04-14 17:07 | 50.87266 | -2.98115 | 31120 ft | 416 kts | 286° |
| 2026-04-14 17:07 | 50.88026 | -3.02543 | 31518 ft | 418 kts | 286° |
| 2026-04-14 17:07 | 50.88789 | -3.06992 | 31912 ft | 420 kts | 286° |
| 2026-04-14 17:07 | 50.89553 | -3.11461 | 32305 ft | 421 kts | 285° |
| 2026-04-14 17:08 | 50.90321 | -3.15969 | 32681 ft | 423 kts | 285° |
| 2026-04-14 17:08 | 50.91086 | -3.20470 | 33079 ft | 424 kts | 285° |
| 2026-04-14 17:08 | 50.91853 | -3.24997 | 33426 ft | 426 kts | 285° |
| 2026-04-14 17:08 | 50.92621 | -3.29536 | 33816 ft | 427 kts | 285° |
| 2026-04-14 17:09 | 50.93390 | -3.34092 | 34149 ft | 429 kts | 285° |
| 2026-04-14 17:09 | 50.94152 | -3.38619 | 34510 ft | 431 kts | 285° |
| 2026-04-14 17:09 | 50.94922 | -3.43216 | 34900 ft | 431 kts | 285° |
| 2026-04-14 17:09 | 50.95690 | -3.47802 | 35405 ft | 428 kts | 285° |
| 2026-04-14 17:10 | 50.96450 | -3.52359 | 35929 ft | 425 kts | 285° |
| 2026-04-14 17:10 | 50.97201 | -3.56870 | 36500 ft | 421 kts | 285° |
| 2026-04-14 17:10 | 50.97945 | -3.61353 | 36948 ft | 419 kts | 285° |
| 2026-04-14 17:10 | 50.98682 | -3.65799 | 37526 ft | 414 kts | 285° |
| 2026-04-14 17:11 | 50.99409 | -3.70197 | 37923 ft | 413 kts | 284° |
| 2026-04-14 17:11 | 51.00130 | -3.74573 | 38018 ft | 404 kts | 285° |
| 2026-04-14 17:11 | 51.01545 | -3.83190 | 38008 ft | 405 kts | 284° |